sensor_id;sensor_type;location;lat;lon;timestamp;P1;durP1;ratioP1;P2;durP2;ratioP2
13432;SDS011;6789;47.678;9.158;2022-12-18T00:02:45;45.33;;;18.57;;
13432;SDS011;6789;47.678;9.158;2022-12-18T00:07:52;48.57;;;18.70;;
13432;SDS011;6789;47.678;9.158;2022-12-18T00:12:59;42.37;;;17.10;;
13432;SDS011;6789;47.678;9.158;2022-12-18T00:18:36;48.50;;;17.63;;
13432;SDS011;6789;47.678;9.158;2022-12-18T00:23:43;47.20;;;18.27;;
13432;SDS011;6789;47.678;9.158;2022-12-18T00:28:51;43.40;;;17.00;;
13432;SDS011;6789;47.678;9.158;2022-12-18T00:34:00;50.73;;;17.70;;
13432;SDS011;6789;47.678;9.158;2022-12-18T00:38:55;40.73;;;17.80;;
13432;SDS011;6789;47.678;9.158;2022-12-18T00:44:03;49.93;;;18.87;;
13432;SDS011;6789;47.678;9.158;2022-12-18T00:49:06;46.60;;;17.97;;
13432;SDS011;6789;47.678;9.158;2022-12-18T00:54:13;44.53;;;18.70;;
13432;SDS011;6789;47.678;9.158;2022-12-18T00:59:19;46.67;;;18.23;;
13432;SDS011;6789;47.678;9.158;2022-12-18T01:04:31;46.37;;;18.47;;
13432;SDS011;6789;47.678;9.158;2022-12-18T01:09:35;45.43;;;16.80;;
13432;SDS011;6789;47.678;9.158;2022-12-18T01:14:41;47.50;;;17.83;;
13432;SDS011;6789;47.678;9.158;2022-12-18T01:19:46;47.13;;;17.63;;
13432;SDS011;6789;47.678;9.158;2022-12-18T01:24:54;45.67;;;18.53;;
13432;SDS011;6789;47.678;9.158;2022-12-18T01:30:00;49.50;;;17.80;;
13432;SDS011;6789;47.678;9.158;2022-12-18T01:35:03;40.10;;;17.50;;
13432;SDS011;6789;47.678;9.158;2022-12-18T01:40:10;47.37;;;17.87;;
13432;SDS011;6789;47.678;9.158;2022-12-18T01:50:52;49.10;;;19.03;;
13432;SDS011;6789;47.678;9.158;2022-12-18T01:55:58;60.00;;;19.73;;
13432;SDS011;6789;47.678;9.158;2022-12-18T02:01:07;49.70;;;19.53;;
13432;SDS011;6789;47.678;9.158;2022-12-18T02:06:09;47.33;;;18.03;;
13432;SDS011;6789;47.678;9.158;2022-12-18T02:11:49;55.90;;;19.53;;
13432;SDS011;6789;47.678;9.158;2022-12-18T02:17:06;51.40;;;20.37;;
13432;SDS011;6789;47.678;9.158;2022-12-18T02:28:13;51.33;;;19.17;;
13432;SDS011;6789;47.678;9.158;2022-12-18T02:33:26;47.60;;;19.40;;
13432;SDS011;6789;47.678;9.158;2022-12-18T02:38:39;48.97;;;20.03;;
13432;SDS011;6789;47.678;9.158;2022-12-18T02:43:48;51.13;;;18.77;;
13432;SDS011;6789;47.678;9.158;2022-12-18T02:55:13;38.50;;;15.40;;
13432;SDS011;6789;47.678;9.158;2022-12-18T03:00:41;39.77;;;15.67;;
13432;SDS011;6789;47.678;9.158;2022-12-18T03:06:05;38.67;;;15.77;;
13432;SDS011;6789;47.678;9.158;2022-12-18T03:11:32;41.67;;;16.33;;
13432;SDS011;6789;47.678;9.158;2022-12-18T03:17:05;42.50;;;16.07;;
13432;SDS011;6789;47.678;9.158;2022-12-18T03:22:04;43.37;;;16.40;;
13432;SDS011;6789;47.678;9.158;2022-12-18T03:27:02;46.77;;;16.77;;
13432;SDS011;6789;47.678;9.158;2022-12-18T03:32:02;42.67;;;17.03;;
13432;SDS011;6789;47.678;9.158;2022-12-18T03:37:15;41.53;;;15.93;;
13432;SDS011;6789;47.678;9.158;2022-12-18T03:47:07;45.13;;;16.43;;
13432;SDS011;6789;47.678;9.158;2022-12-18T03:52:56;44.30;;;17.00;;
13432;SDS011;6789;47.678;9.158;2022-12-18T03:58:17;42.33;;;16.90;;
13432;SDS011;6789;47.678;9.158;2022-12-18T04:03:14;43.70;;;16.50;;
13432;SDS011;6789;47.678;9.158;2022-12-18T04:08:15;50.93;;;16.73;;
13432;SDS011;6789;47.678;9.158;2022-12-18T04:13:08;43.57;;;17.43;;
13432;SDS011;6789;47.678;9.158;2022-12-18T04:18:02;43.87;;;16.33;;
13432;SDS011;6789;47.678;9.158;2022-12-18T04:22:54;39.17;;;16.40;;
13432;SDS011;6789;47.678;9.158;2022-12-18T04:27:46;38.57;;;16.13;;
13432;SDS011;6789;47.678;9.158;2022-12-18T04:32:38;44.17;;;16.27;;
13432;SDS011;6789;47.678;9.158;2022-12-18T04:37:29;48.03;;;17.43;;
13432;SDS011;6789;47.678;9.158;2022-12-18T04:42:21;52.37;;;17.73;;
13432;SDS011;6789;47.678;9.158;2022-12-18T04:47:13;39.20;;;15.77;;
13432;SDS011;6789;47.678;9.158;2022-12-18T04:52:07;38.23;;;13.73;;
13432;SDS011;6789;47.678;9.158;2022-12-18T04:56:59;41.97;;;15.17;;
13432;SDS011;6789;47.678;9.158;2022-12-18T05:01:51;35.77;;;15.23;;
13432;SDS011;6789;47.678;9.158;2022-12-18T05:06:45;36.47;;;14.77;;
13432;SDS011;6789;47.678;9.158;2022-12-18T05:11:39;41.17;;;15.60;;
13432;SDS011;6789;47.678;9.158;2022-12-18T05:16:32;39.50;;;15.07;;
13432;SDS011;6789;47.678;9.158;2022-12-18T05:21:26;41.47;;;16.60;;
13432;SDS011;6789;47.678;9.158;2022-12-18T05:26:32;41.97;;;15.20;;
13432;SDS011;6789;47.678;9.158;2022-12-18T05:31:25;43.40;;;15.27;;
13432;SDS011;6789;47.678;9.158;2022-12-18T05:36:31;38.27;;;15.17;;
13432;SDS011;6789;47.678;9.158;2022-12-18T05:41:37;39.97;;;16.53;;
13432;SDS011;6789;47.678;9.158;2022-12-18T05:46:37;43.47;;;16.50;;
13432;SDS011;6789;47.678;9.158;2022-12-18T05:51:33;46.17;;;17.47;;
13432;SDS011;6789;47.678;9.158;2022-12-18T05:56:27;45.80;;;16.70;;
13432;SDS011;6789;47.678;9.158;2022-12-18T06:01:22;40.10;;;16.00;;
13432;SDS011;6789;47.678;9.158;2022-12-18T06:06:22;41.93;;;16.00;;
13432;SDS011;6789;47.678;9.158;2022-12-18T06:11:26;45.10;;;16.93;;
13432;SDS011;6789;47.678;9.158;2022-12-18T06:16:20;41.87;;;16.23;;
13432;SDS011;6789;47.678;9.158;2022-12-18T06:21:26;42.50;;;16.63;;
13432;SDS011;6789;47.678;9.158;2022-12-18T06:26:36;43.93;;;18.10;;
13432;SDS011;6789;47.678;9.158;2022-12-18T06:31:43;40.30;;;17.03;;
13432;SDS011;6789;47.678;9.158;2022-12-18T06:36:37;48.27;;;17.80;;
13432;SDS011;6789;47.678;9.158;2022-12-18T06:41:43;43.87;;;16.57;;
13432;SDS011;6789;47.678;9.158;2022-12-18T06:46:36;43.27;;;16.90;;
13432;SDS011;6789;47.678;9.158;2022-12-18T06:51:29;41.73;;;16.43;;
13432;SDS011;6789;47.678;9.158;2022-12-18T06:56:35;50.43;;;18.33;;
13432;SDS011;6789;47.678;9.158;2022-12-18T07:01:27;45.57;;;16.97;;
13432;SDS011;6789;47.678;9.158;2022-12-18T07:06:21;47.73;;;16.60;;
13432;SDS011;6789;47.678;9.158;2022-12-18T07:11:16;46.23;;;17.30;;
13432;SDS011;6789;47.678;9.158;2022-12-18T07:16:14;46.17;;;17.73;;
13432;SDS011;6789;47.678;9.158;2022-12-18T07:21:17;53.27;;;18.80;;
13432;SDS011;6789;47.678;9.158;2022-12-18T07:26:13;53.43;;;19.23;;
13432;SDS011;6789;47.678;9.158;2022-12-18T07:31:21;47.10;;;17.90;;
13432;SDS011;6789;47.678;9.158;2022-12-18T07:36:14;44.30;;;17.23;;
13432;SDS011;6789;47.678;9.158;2022-12-18T07:41:11;51.07;;;19.10;;
13432;SDS011;6789;47.678;9.158;2022-12-18T07:46:18;51.07;;;18.27;;
13432;SDS011;6789;47.678;9.158;2022-12-18T07:51:11;48.00;;;19.07;;
13432;SDS011;6789;47.678;9.158;2022-12-18T07:56:18;43.03;;;17.53;;
13432;SDS011;6789;47.678;9.158;2022-12-18T08:01:21;44.90;;;17.80;;
13432;SDS011;6789;47.678;9.158;2022-12-18T08:06:14;50.70;;;19.17;;
13432;SDS011;6789;47.678;9.158;2022-12-18T08:11:08;46.73;;;17.20;;
13432;SDS011;6789;47.678;9.158;2022-12-18T08:16:02;57.10;;;19.10;;
13432;SDS011;6789;47.678;9.158;2022-12-18T08:21:06;55.03;;;18.47;;
13432;SDS011;6789;47.678;9.158;2022-12-18T08:26:11;47.83;;;16.83;;
13432;SDS011;6789;47.678;9.158;2022-12-18T08:31:05;51.00;;;17.50;;
13432;SDS011;6789;47.678;9.158;2022-12-18T08:35:58;50.67;;;17.27;;
13432;SDS011;6789;47.678;9.158;2022-12-18T08:41:06;51.23;;;18.43;;
13432;SDS011;6789;47.678;9.158;2022-12-18T08:46:02;46.50;;;17.53;;
13432;SDS011;6789;47.678;9.158;2022-12-18T08:50:58;53.73;;;18.07;;
13432;SDS011;6789;47.678;9.158;2022-12-18T08:55:55;50.67;;;17.10;;
13432;SDS011;6789;47.678;9.158;2022-12-18T09:00:48;41.93;;;16.20;;
13432;SDS011;6789;47.678;9.158;2022-12-18T09:05:40;48.77;;;17.37;;
13432;SDS011;6789;47.678;9.158;2022-12-18T09:10:33;48.37;;;17.60;;
13432;SDS011;6789;47.678;9.158;2022-12-18T09:15:33;46.37;;;17.10;;
13432;SDS011;6789;47.678;9.158;2022-12-18T09:20:25;48.63;;;18.20;;
13432;SDS011;6789;47.678;9.158;2022-12-18T09:25:19;47.60;;;17.37;;
13432;SDS011;6789;47.678;9.158;2022-12-18T09:30:26;45.90;;;18.03;;
13432;SDS011;6789;47.678;9.158;2022-12-18T09:35:25;49.10;;;16.93;;
13432;SDS011;6789;47.678;9.158;2022-12-18T09:40:25;47.37;;;17.93;;
13432;SDS011;6789;47.678;9.158;2022-12-18T09:45:24;50.97;;;18.67;;
13432;SDS011;6789;47.678;9.158;2022-12-18T09:55:36;42.33;;;17.07;;
13432;SDS011;6789;47.678;9.158;2022-12-18T10:00:36;46.23;;;17.83;;
13432;SDS011;6789;47.678;9.158;2022-12-18T10:21:50;42.13;;;16.83;;
13432;SDS011;6789;47.678;9.158;2022-12-18T10:26:53;40.13;;;15.43;;
13432;SDS011;6789;47.678;9.158;2022-12-18T10:32:06;41.90;;;15.90;;
13432;SDS011;6789;47.678;9.158;2022-12-18T10:37:10;43.97;;;17.20;;
13432;SDS011;6789;47.678;9.158;2022-12-18T10:42:19;44.53;;;16.97;;
13432;SDS011;6789;47.678;9.158;2022-12-18T10:47:14;44.57;;;17.40;;
13432;SDS011;6789;47.678;9.158;2022-12-18T10:52:25;46.00;;;15.67;;
13432;SDS011;6789;47.678;9.158;2022-12-18T10:57:38;43.60;;;16.57;;
13432;SDS011;6789;47.678;9.158;2022-12-18T11:02:46;40.90;;;15.90;;
13432;SDS011;6789;47.678;9.158;2022-12-18T11:07:52;42.10;;;16.47;;
13432;SDS011;6789;47.678;9.158;2022-12-18T11:12:55;44.03;;;16.37;;
13432;SDS011;6789;47.678;9.158;2022-12-18T11:23:13;43.50;;;16.87;;
13432;SDS011;6789;47.678;9.158;2022-12-18T11:28:29;44.00;;;16.37;;
13432;SDS011;6789;47.678;9.158;2022-12-18T11:33:49;43.70;;;16.50;;
13432;SDS011;6789;47.678;9.158;2022-12-18T11:39:17;41.77;;;16.13;;
13432;SDS011;6789;47.678;9.158;2022-12-18T11:44:41;40.73;;;15.80;;
13432;SDS011;6789;47.678;9.158;2022-12-18T11:50:57;43.40;;;15.93;;
13432;SDS011;6789;47.678;9.158;2022-12-18T12:18:05;38.90;;;14.43;;
13432;SDS011;6789;47.678;9.158;2022-12-18T12:23:43;45.67;;;15.60;;
13432;SDS011;6789;47.678;9.158;2022-12-18T12:29:10;36.20;;;14.90;;
13432;SDS011;6789;47.678;9.158;2022-12-18T12:40:03;43.17;;;16.03;;
13432;SDS011;6789;47.678;9.158;2022-12-18T12:45:22;39.13;;;15.23;;
13432;SDS011;6789;47.678;9.158;2022-12-18T12:50:33;34.83;;;14.57;;
13432;SDS011;6789;47.678;9.158;2022-12-18T12:55:28;37.40;;;14.37;;
13432;SDS011;6789;47.678;9.158;2022-12-18T13:00:46;36.53;;;13.93;;
13432;SDS011;6789;47.678;9.158;2022-12-18T13:11:46;37.10;;;14.50;;
13432;SDS011;6789;47.678;9.158;2022-12-18T13:17:29;39.90;;;15.73;;
13432;SDS011;6789;47.678;9.158;2022-12-18T13:22:24;36.03;;;14.57;;
13432;SDS011;6789;47.678;9.158;2022-12-18T13:28:05;42.70;;;15.07;;
13432;SDS011;6789;47.678;9.158;2022-12-18T13:38:22;44.63;;;15.17;;
13432;SDS011;6789;47.678;9.158;2022-12-18T13:48:51;42.43;;;16.37;;
13432;SDS011;6789;47.678;9.158;2022-12-18T13:53:53;35.53;;;15.37;;
13432;SDS011;6789;47.678;9.158;2022-12-18T13:59:05;40.47;;;15.13;;
13432;SDS011;6789;47.678;9.158;2022-12-18T14:04:12;39.57;;;15.43;;
13432;SDS011;6789;47.678;9.158;2022-12-18T14:09:29;44.37;;;15.60;;
13432;SDS011;6789;47.678;9.158;2022-12-18T14:14:41;40.77;;;16.30;;
13432;SDS011;6789;47.678;9.158;2022-12-18T14:19:46;39.97;;;14.60;;
13432;SDS011;6789;47.678;9.158;2022-12-18T14:24:46;36.80;;;13.97;;
13432;SDS011;6789;47.678;9.158;2022-12-18T14:29:56;43.90;;;16.10;;
13432;SDS011;6789;47.678;9.158;2022-12-18T14:34:51;41.00;;;14.77;;
13432;SDS011;6789;47.678;9.158;2022-12-18T14:50:39;44.77;;;15.83;;
13432;SDS011;6789;47.678;9.158;2022-12-18T14:55:32;40.13;;;15.30;;
13432;SDS011;6789;47.678;9.158;2022-12-18T15:00:28;50.10;;;16.30;;
13432;SDS011;6789;47.678;9.158;2022-12-18T15:05:33;41.00;;;14.43;;
13432;SDS011;6789;47.678;9.158;2022-12-18T15:10:46;41.03;;;15.67;;
13432;SDS011;6789;47.678;9.158;2022-12-18T15:20:53;42.37;;;14.80;;
13432;SDS011;6789;47.678;9.158;2022-12-18T15:25:59;39.60;;;15.63;;
13432;SDS011;6789;47.678;9.158;2022-12-18T15:36:16;41.60;;;15.93;;
13432;SDS011;6789;47.678;9.158;2022-12-18T15:41:23;42.97;;;14.80;;
13432;SDS011;6789;47.678;9.158;2022-12-18T15:46:17;41.63;;;15.30;;
13432;SDS011;6789;47.678;9.158;2022-12-18T15:51:35;43.83;;;16.57;;
13432;SDS011;6789;47.678;9.158;2022-12-18T15:56:43;45.30;;;15.60;;
13432;SDS011;6789;47.678;9.158;2022-12-18T16:02:07;47.60;;;15.67;;
13432;SDS011;6789;47.678;9.158;2022-12-18T16:07:23;37.97;;;14.20;;
13432;SDS011;6789;47.678;9.158;2022-12-18T16:12:30;39.37;;;14.30;;
13432;SDS011;6789;47.678;9.158;2022-12-18T16:17:40;40.03;;;14.87;;
13432;SDS011;6789;47.678;9.158;2022-12-18T16:22:49;40.33;;;14.83;;
13432;SDS011;6789;47.678;9.158;2022-12-18T16:27:42;40.10;;;15.40;;
13432;SDS011;6789;47.678;9.158;2022-12-18T16:32:48;42.20;;;14.60;;
13432;SDS011;6789;47.678;9.158;2022-12-18T16:37:48;43.57;;;14.67;;
13432;SDS011;6789;47.678;9.158;2022-12-18T16:42:41;45.47;;;14.87;;
13432;SDS011;6789;47.678;9.158;2022-12-18T16:47:49;39.40;;;14.33;;
13432;SDS011;6789;47.678;9.158;2022-12-18T16:52:55;37.70;;;14.70;;
13432;SDS011;6789;47.678;9.158;2022-12-18T16:57:55;43.90;;;15.07;;
13432;SDS011;6789;47.678;9.158;2022-12-18T17:02:54;43.40;;;14.70;;
13432;SDS011;6789;47.678;9.158;2022-12-18T17:07:59;53.08;;;22.88;;
13432;SDS011;6789;47.678;9.158;2022-12-18T17:13:05;47.37;;;16.60;;
13432;SDS011;6789;47.678;9.158;2022-12-18T17:18:11;44.10;;;17.10;;
13432;SDS011;6789;47.678;9.158;2022-12-18T17:23:17;49.97;;;16.93;;
13432;SDS011;6789;47.678;9.158;2022-12-18T17:28:23;51.03;;;16.60;;
13432;SDS011;6789;47.678;9.158;2022-12-18T17:33:33;49.80;;;17.17;;
13432;SDS011;6789;47.678;9.158;2022-12-18T17:38:27;44.53;;;16.17;;
13432;SDS011;6789;47.678;9.158;2022-12-18T17:43:20;47.43;;;16.13;;
13432;SDS011;6789;47.678;9.158;2022-12-18T17:48:26;47.43;;;15.43;;
13432;SDS011;6789;47.678;9.158;2022-12-18T17:53:18;41.47;;;16.20;;
13432;SDS011;6789;47.678;9.158;2022-12-18T17:58:24;41.30;;;15.83;;
13432;SDS011;6789;47.678;9.158;2022-12-18T18:03:30;44.93;;;16.20;;
13432;SDS011;6789;47.678;9.158;2022-12-18T18:08:26;45.80;;;16.93;;
13432;SDS011;6789;47.678;9.158;2022-12-18T18:13:33;46.10;;;16.80;;
13432;SDS011;6789;47.678;9.158;2022-12-18T18:18:59;43.73;;;16.63;;
13432;SDS011;6789;47.678;9.158;2022-12-18T18:24:09;45.77;;;16.20;;
13432;SDS011;6789;47.678;9.158;2022-12-18T18:29:20;44.07;;;15.37;;
13432;SDS011;6789;47.678;9.158;2022-12-18T18:34:30;51.13;;;18.47;;
13432;SDS011;6789;47.678;9.158;2022-12-18T18:39:30;51.20;;;18.10;;
13432;SDS011;6789;47.678;9.158;2022-12-18T18:44:26;47.07;;;16.50;;
13432;SDS011;6789;47.678;9.158;2022-12-18T18:49:26;46.00;;;16.07;;
13432;SDS011;6789;47.678;9.158;2022-12-18T18:54:32;49.17;;;16.47;;
13432;SDS011;6789;47.678;9.158;2022-12-18T18:59:52;55.07;;;17.13;;
13432;SDS011;6789;47.678;9.158;2022-12-18T19:04:44;51.07;;;17.70;;
13432;SDS011;6789;47.678;9.158;2022-12-18T19:09:52;46.83;;;17.00;;
13432;SDS011;6789;47.678;9.158;2022-12-18T19:14:46;52.93;;;18.63;;
13432;SDS011;6789;47.678;9.158;2022-12-18T19:19:44;47.60;;;17.63;;
13432;SDS011;6789;47.678;9.158;2022-12-18T19:24:50;47.57;;;16.63;;
13432;SDS011;6789;47.678;9.158;2022-12-18T19:29:56;52.73;;;17.37;;
13432;SDS011;6789;47.678;9.158;2022-12-18T19:34:51;47.70;;;17.67;;
13432;SDS011;6789;47.678;9.158;2022-12-18T19:39:57;51.70;;;18.43;;
13432;SDS011;6789;47.678;9.158;2022-12-18T19:44:56;53.13;;;18.17;;
13432;SDS011;6789;47.678;9.158;2022-12-18T19:50:01;49.00;;;16.87;;
13432;SDS011;6789;47.678;9.158;2022-12-18T19:55:03;52.03;;;19.50;;
13432;SDS011;6789;47.678;9.158;2022-12-18T19:59:58;55.87;;;18.77;;
13432;SDS011;6789;47.678;9.158;2022-12-18T20:05:08;48.97;;;17.97;;
13432;SDS011;6789;47.678;9.158;2022-12-18T20:10:18;59.77;;;19.40;;
13432;SDS011;6789;47.678;9.158;2022-12-18T20:15:25;58.67;;;19.77;;
13432;SDS011;6789;47.678;9.158;2022-12-18T20:20:22;55.23;;;19.03;;
13432;SDS011;6789;47.678;9.158;2022-12-18T20:25:15;54.70;;;19.43;;
13432;SDS011;6789;47.678;9.158;2022-12-18T20:30:23;52.87;;;19.10;;
13432;SDS011;6789;47.678;9.158;2022-12-18T20:35:31;55.37;;;19.07;;
13432;SDS011;6789;47.678;9.158;2022-12-18T20:40:26;54.30;;;18.97;;
13432;SDS011;6789;47.678;9.158;2022-12-18T20:45:32;62.00;;;19.33;;
13432;SDS011;6789;47.678;9.158;2022-12-18T20:50:38;57.90;;;19.30;;
13432;SDS011;6789;47.678;9.158;2022-12-18T20:55:33;59.20;;;20.00;;
13432;SDS011;6789;47.678;9.158;2022-12-18T21:00:27;54.70;;;19.27;;
13432;SDS011;6789;47.678;9.158;2022-12-18T21:05:33;56.50;;;17.97;;
13432;SDS011;6789;47.678;9.158;2022-12-18T21:10:39;54.03;;;18.73;;
13432;SDS011;6789;47.678;9.158;2022-12-18T21:15:46;59.60;;;19.47;;
13432;SDS011;6789;47.678;9.158;2022-12-18T21:20:46;59.70;;;20.03;;
13432;SDS011;6789;47.678;9.158;2022-12-18T21:25:53;53.83;;;18.83;;
13432;SDS011;6789;47.678;9.158;2022-12-18T21:30:46;54.33;;;18.80;;
13432;SDS011;6789;47.678;9.158;2022-12-18T21:35:52;59.93;;;18.43;;
13432;SDS011;6789;47.678;9.158;2022-12-18T21:40:44;52.57;;;19.03;;
13432;SDS011;6789;47.678;9.158;2022-12-18T21:45:36;57.50;;;20.53;;
13432;SDS011;6789;47.678;9.158;2022-12-18T21:50:28;50.77;;;18.87;;
13432;SDS011;6789;47.678;9.158;2022-12-18T21:55:21;55.70;;;19.87;;
13432;SDS011;6789;47.678;9.158;2022-12-18T22:00:27;57.97;;;20.00;;
13432;SDS011;6789;47.678;9.158;2022-12-18T22:05:21;52.20;;;19.20;;
13432;SDS011;6789;47.678;9.158;2022-12-18T22:10:14;54.13;;;17.60;;
13432;SDS011;6789;47.678;9.158;2022-12-18T22:15:13;57.77;;;20.87;;
13432;SDS011;6789;47.678;9.158;2022-12-18T22:20:12;54.57;;;20.20;;
13432;SDS011;6789;47.678;9.158;2022-12-18T22:25:04;61.50;;;20.10;;
13432;SDS011;6789;47.678;9.158;2022-12-18T22:30:10;58.53;;;19.70;;
13432;SDS011;6789;47.678;9.158;2022-12-18T22:35:18;57.10;;;19.03;;
13432;SDS011;6789;47.678;9.158;2022-12-18T22:40:16;53.47;;;19.27;;
13432;SDS011;6789;47.678;9.158;2022-12-18T22:45:16;53.40;;;18.57;;
13432;SDS011;6789;47.678;9.158;2022-12-18T22:50:21;56.53;;;18.17;;
13432;SDS011;6789;47.678;9.158;2022-12-18T22:55:14;55.37;;;18.53;;
13432;SDS011;6789;47.678;9.158;2022-12-18T23:00:06;57.77;;;19.73;;
13432;SDS011;6789;47.678;9.158;2022-12-18T23:04:59;52.93;;;18.03;;
13432;SDS011;6789;47.678;9.158;2022-12-18T23:10:06;56.80;;;17.87;;
13432;SDS011;6789;47.678;9.158;2022-12-18T23:15:13;51.50;;;17.73;;
13432;SDS011;6789;47.678;9.158;2022-12-18T23:20:20;45.43;;;16.97;;
13432;SDS011;6789;47.678;9.158;2022-12-18T23:25:26;52.20;;;18.13;;
13432;SDS011;6789;47.678;9.158;2022-12-18T23:30:18;56.20;;;18.90;;
13432;SDS011;6789;47.678;9.158;2022-12-18T23:35:11;56.50;;;19.60;;
13432;SDS011;6789;47.678;9.158;2022-12-18T23:40:17;57.70;;;19.70;;
13432;SDS011;6789;47.678;9.158;2022-12-18T23:45:19;55.73;;;19.20;;
13432;SDS011;6789;47.678;9.158;2022-12-18T23:50:12;58.03;;;19.80;;
13432;SDS011;6789;47.678;9.158;2022-12-18T23:55:04;53.07;;;17.83;;
